createdAt,value
2018-02-27T00:00:58.103Z,82.5
2018-02-27T00:01:59.707Z,82.8
2018-02-27T00:03:01.314Z,82.8
2018-02-27T00:04:02.920Z,82.8
2018-02-27T00:05:04.525Z,82.8
2018-02-27T00:06:06.124Z,83.0
2018-02-27T00:07:07.733Z,83.1
2018-02-27T00:08:09.328Z,82.5
2018-02-27T00:09:10.938Z,82.8
2018-02-27T00:10:12.536Z,82.9
2018-02-27T00:11:14.142Z,82.6
2018-02-27T00:12:15.746Z,82.8
2018-02-27T00:13:17.353Z,82.7
2018-02-27T00:14:18.945Z,82.8
2018-02-27T00:15:20.554Z,82.6
2018-02-27T00:16:22.150Z,82.9
2018-02-27T00:17:23.753Z,82.8
2018-02-27T00:18:25.360Z,82.8
2018-02-27T00:19:26.965Z,82.7
2018-02-27T00:20:28.560Z,82.8
2018-02-27T00:21:30.160Z,82.7
2018-02-27T00:22:31.763Z,82.8
2018-02-27T00:23:33.362Z,82.7
2018-02-27T00:24:34.971Z,82.8
2018-02-27T00:25:36.567Z,82.8
2018-02-27T00:26:38.177Z,82.8
2018-02-27T00:27:40.397Z,82.5
2018-02-27T00:28:41.980Z,82.9
2018-02-27T00:29:43.580Z,83.4
2018-02-27T00:30:45.189Z,83.4
2018-02-27T00:31:46.787Z,83.0
2018-02-27T00:32:48.395Z,83.2
2018-02-27T00:33:49.998Z,83.2
2018-02-27T00:34:51.601Z,83.4
2018-02-27T00:35:53.197Z,82.7
2018-02-27T00:36:54.805Z,83.4
2018-02-27T00:37:56.412Z,83.7
2018-02-27T00:38:58.004Z,83.3
2018-02-27T00:39:59.613Z,82.8
2018-02-27T00:41:01.215Z,82.7
2018-02-27T00:42:02.817Z,83.4
2018-02-27T00:43:04.420Z,83.0
2018-02-27T00:44:06.024Z,83.0
2018-02-27T00:45:07.625Z,83.4
2018-02-27T00:46:09.226Z,83.3
2018-02-27T00:47:10.835Z,83.1
2018-02-27T00:48:12.442Z,82.8
2018-02-27T00:49:14.039Z,83.2
2018-02-27T00:50:15.645Z,82.7
2018-02-27T00:51:17.243Z,82.8
2018-02-27T00:52:18.847Z,82.9
2018-02-27T00:53:20.446Z,82.9
2018-02-27T00:54:22.055Z,82.7
2018-02-27T00:55:23.653Z,83.2
2018-02-27T00:56:25.257Z,82.7
2018-02-27T00:57:26.857Z,82.6
2018-02-27T00:58:28.458Z,83.0
2018-02-27T00:59:30.062Z,82.8
2018-02-27T01:00:31.667Z,82.8
2018-02-27T01:01:33.268Z,83.3
2018-02-27T01:02:34.874Z,83.0
2018-02-27T01:03:36.477Z,82.9
2018-02-27T01:04:38.075Z,82.9
2018-02-27T01:05:39.681Z,82.6
2018-02-27T01:06:41.280Z,82.8
2018-02-27T01:07:42.888Z,83.1
2018-02-27T01:08:44.489Z,82.8
2018-02-27T01:09:46.095Z,83.2
2018-02-27T01:10:47.692Z,82.9
2018-02-27T01:11:49.296Z,83.0
2018-02-27T01:12:50.898Z,82.6
2018-02-27T01:13:52.498Z,83.0
2018-02-27T01:14:54.105Z,83.1
2018-02-27T01:15:55.705Z,82.8
2018-02-27T01:16:57.317Z,82.6
2018-02-27T01:17:58.910Z,83.2
2018-02-27T01:19:00.522Z,82.8
2018-02-27T01:20:02.120Z,83.2
2018-02-27T01:21:03.719Z,83.1
2018-02-27T01:22:05.326Z,83.2
2018-02-27T01:23:06.926Z,82.5
2018-02-27T01:24:08.530Z,82.6
2018-02-27T01:25:10.128Z,82.9
2018-02-27T01:26:11.732Z,82.8
2018-02-27T01:27:13.329Z,82.7
2018-02-27T01:28:14.934Z,83.2
2018-02-27T01:29:16.533Z,82.8
2018-02-27T01:30:18.141Z,82.5
2018-02-27T01:31:19.738Z,83.1
2018-02-27T01:32:21.345Z,82.8
2018-02-27T01:33:22.940Z,83.0
2018-02-27T01:34:24.543Z,83.0
2018-02-27T01:35:26.143Z,83.4
2018-02-27T01:36:27.747Z,83.2
2018-02-27T01:37:29.350Z,83.3
2018-02-27T01:38:30.950Z,83.4
2018-02-27T01:39:32.548Z,83.1
2018-02-27T01:40:34.152Z,83.1
2018-02-27T01:41:35.761Z,83.4
2018-02-27T01:42:37.353Z,83.0
2018-02-27T01:43:38.956Z,83.2
2018-02-27T01:44:40.562Z,83.4
2018-02-27T01:45:42.167Z,83.2
2018-02-27T01:46:43.767Z,83.2
2018-02-27T01:47:45.368Z,83.5
2018-02-27T01:48:46.974Z,83.8
2018-02-27T01:49:48.578Z,83.8
2018-02-27T01:50:50.179Z,83.8
2018-02-27T01:51:51.780Z,83.8
2018-02-27T01:52:53.389Z,83.8
2018-02-27T01:53:54.990Z,83.6
2018-02-27T01:54:56.592Z,84.0
2018-02-27T01:55:58.742Z,83.9
2018-02-27T01:57:00.347Z,83.8
2018-02-27T01:58:01.952Z,83.8
2018-02-27T01:59:03.553Z,83.8
2018-02-27T02:00:05.869Z,83.7
2018-02-27T02:01:07.476Z,83.7
2018-02-27T02:02:09.073Z,83.6
2018-02-27T02:03:10.678Z,83.8
2018-02-27T02:04:12.277Z,83.6
2018-02-27T02:05:13.882Z,83.7
2018-02-27T02:06:15.482Z,83.8
2018-02-27T02:07:17.087Z,83.8
2018-02-27T02:08:18.689Z,83.8
2018-02-27T02:09:20.287Z,84.1
2018-02-27T02:10:21.890Z,84.3
2018-02-27T02:11:23.492Z,84.2
2018-02-27T02:12:25.673Z,84.1
2018-02-27T02:13:27.271Z,83.9
2018-02-27T02:14:28.879Z,83.9
2018-02-27T02:15:30.482Z,84.2
2018-02-27T02:16:32.084Z,83.8
2018-02-27T02:17:33.685Z,83.9
2018-02-27T02:18:35.287Z,83.9
2018-02-27T02:19:36.893Z,84.1
2018-02-27T02:20:38.498Z,84.3
2018-02-27T02:21:40.098Z,83.8
2018-02-27T02:22:41.695Z,84.2
2018-02-27T02:23:43.301Z,84.2
2018-02-27T02:24:44.899Z,84.2
2018-02-27T02:25:46.503Z,84.1
2018-02-27T02:26:48.106Z,84.0
2018-02-27T02:27:49.708Z,84.0
2018-02-27T02:28:51.310Z,84.2
2018-02-27T02:29:52.916Z,84.3
2018-02-27T02:30:54.523Z,84.4
2018-02-27T02:31:56.122Z,84.0
2018-02-27T02:32:57.720Z,84.3
2018-02-27T02:33:59.326Z,84.4
2018-02-27T02:35:00.930Z,84.1
2018-02-27T02:36:02.531Z,84.0
2018-02-27T02:37:04.128Z,84.2
2018-02-27T02:38:05.745Z,83.8
2018-02-27T02:39:07.332Z,84.0
2018-02-27T02:40:08.937Z,84.1
2018-02-27T02:41:10.539Z,84.2
2018-02-27T02:42:12.158Z,84.1
2018-02-27T02:43:13.741Z,84.5
2018-02-27T02:44:15.345Z,84.4
2018-02-27T02:45:16.948Z,84.4
2018-02-27T02:46:18.548Z,84.5
2018-02-27T02:47:20.148Z,84.3
2018-02-27T02:48:21.758Z,84.3
2018-02-27T02:49:23.361Z,84.0
2018-02-27T02:50:24.962Z,84.2
2018-02-27T02:51:26.560Z,84.5
2018-02-27T02:52:28.165Z,84.5
2018-02-27T02:53:29.763Z,84.1
2018-02-27T02:54:31.368Z,84.4
2018-02-27T02:55:32.973Z,84.1
2018-02-27T02:56:34.573Z,84.3
2018-02-27T02:57:36.180Z,84.7
2018-02-27T02:58:37.778Z,84.0
2018-02-27T02:59:40.147Z,84.0
2018-02-27T03:00:41.741Z,84.0
2018-02-27T03:01:43.339Z,84.1
2018-02-27T03:02:44.947Z,83.9
2018-02-27T03:03:46.552Z,84.0
2018-02-27T03:04:48.151Z,83.9
2018-02-27T03:05:49.752Z,83.9
2018-02-27T03:06:51.355Z,84.1
2018-02-27T03:07:52.960Z,84.1
2018-02-27T03:08:54.566Z,84.3
2018-02-27T03:09:56.156Z,84.0
2018-02-27T03:10:57.765Z,84.3
2018-02-27T03:11:59.371Z,84.6
2018-02-27T03:13:00.967Z,84.8
2018-02-27T03:14:02.570Z,84.3
2018-02-27T03:15:04.174Z,84.5
2018-02-27T03:16:05.773Z,84.4
2018-02-27T03:17:07.380Z,84.3
2018-02-27T03:18:08.983Z,84.5
2018-02-27T03:19:10.583Z,84.3
2018-02-27T03:20:12.692Z,84.5
2018-02-27T03:21:14.298Z,84.4
2018-02-27T03:22:15.903Z,84.5
2018-02-27T03:23:17.499Z,84.2
2018-02-27T03:24:19.098Z,84.5
2018-02-27T03:25:20.702Z,84.4
2018-02-27T03:26:22.308Z,84.4
2018-02-27T03:27:23.907Z,84.5
2018-02-27T03:28:25.508Z,84.5
2018-02-27T03:29:27.112Z,84.6
2018-02-27T03:30:28.718Z,84.3
2018-02-27T03:31:30.318Z,84.3
2018-02-27T03:32:31.925Z,84.4
2018-02-27T03:33:33.523Z,84.4
2018-02-27T03:34:35.126Z,84.5
2018-02-27T03:35:36.725Z,84.2
2018-02-27T03:36:38.329Z,84.7
2018-02-27T03:37:39.926Z,84.7
2018-02-27T03:38:41.531Z,83.9
2018-02-27T03:39:43.130Z,84.5
2018-02-27T03:40:44.733Z,84.8
2018-02-27T03:41:46.332Z,84.8
2018-02-27T03:42:47.930Z,84.5
2018-02-27T03:43:49.536Z,84.6
2018-02-27T03:44:51.133Z,85.1
2018-02-27T03:45:52.737Z,84.9
2018-02-27T03:46:54.337Z,85.0
2018-02-27T03:47:55.943Z,84.6
2018-02-27T03:48:57.541Z,85.0
2018-02-27T03:49:59.149Z,84.7
2018-02-27T03:51:00.751Z,84.9
2018-02-27T03:52:02.350Z,85.2
2018-02-27T03:53:03.952Z,85.1
2018-02-27T03:54:05.563Z,85.0
2018-02-27T03:55:07.166Z,85.3
2018-02-27T03:56:08.763Z,85.0
2018-02-27T03:57:10.369Z,84.7
2018-02-27T03:58:11.966Z,85.0
2018-02-27T03:59:13.570Z,85.0
2018-02-27T04:00:15.166Z,85.2
2018-02-27T04:01:16.772Z,84.9
2018-02-27T04:02:18.371Z,84.9
2018-02-27T04:03:19.974Z,85.1
2018-02-27T04:04:21.572Z,84.9
2018-02-27T04:05:23.172Z,85.1
2018-02-27T04:06:24.777Z,84.9
2018-02-27T04:07:26.381Z,85.0
2018-02-27T04:08:27.982Z,84.8
2018-02-27T04:09:29.582Z,84.8
2018-02-27T04:10:31.187Z,85.2
2018-02-27T04:11:32.789Z,84.8
2018-02-27T04:12:34.390Z,84.6
2018-02-27T04:13:35.995Z,85.4
2018-02-27T04:14:37.596Z,85.4
2018-02-27T04:15:39.198Z,85.1
2018-02-27T04:16:40.859Z,85.4
2018-02-27T04:17:42.414Z,85.4
2018-02-27T04:18:44.005Z,85.2
2018-02-27T04:19:45.603Z,85.2
2018-02-27T04:20:47.210Z,85.2
2018-02-27T04:21:48.808Z,85.7
2018-02-27T04:22:50.412Z,85.7
2018-02-27T04:23:52.012Z,85.9
2018-02-27T04:24:54.336Z,85.7
2018-02-27T04:25:55.934Z,85.2
2018-02-27T04:26:57.539Z,85.5
2018-02-27T04:27:59.140Z,85.3
2018-02-27T04:29:00.743Z,85.6
2018-02-27T04:30:02.342Z,85.8
2018-02-27T04:31:03.947Z,85.8
2018-02-27T04:32:05.551Z,85.0
2018-02-27T04:33:07.148Z,85.6
2018-02-27T04:34:08.749Z,85.5
2018-02-27T04:35:10.356Z,85.2
2018-02-27T04:36:11.961Z,85.9
2018-02-27T04:37:13.562Z,85.8
2018-02-27T04:38:15.164Z,85.7
2018-02-27T04:39:16.767Z,85.6
2018-02-27T04:40:18.365Z,85.9
2018-02-27T04:41:19.968Z,85.8
2018-02-27T04:42:21.565Z,85.6
2018-02-27T04:43:23.170Z,85.6
2018-02-27T04:44:24.770Z,85.6
2018-02-27T04:45:26.379Z,85.5
2018-02-27T04:46:27.977Z,85.6
2018-02-27T04:47:29.578Z,85.4
2018-02-27T04:48:31.181Z,85.7
2018-02-27T04:49:32.786Z,85.2
2018-02-27T04:50:34.389Z,85.8
2018-02-27T04:51:35.991Z,85.5
2018-02-27T04:52:37.596Z,85.6
2018-02-27T04:53:39.198Z,85.7
2018-02-27T04:54:40.802Z,85.6
2018-02-27T04:55:42.400Z,85.4
2018-02-27T04:56:44.006Z,85.6
2018-02-27T04:57:45.604Z,85.5
2018-02-27T04:58:47.210Z,85.4
2018-02-27T04:59:48.809Z,85.6
2018-02-27T05:00:50.412Z,85.5
2018-02-27T05:01:52.010Z,85.6
2018-02-27T05:02:53.614Z,85.5
2018-02-27T05:03:55.212Z,85.9
2018-02-27T05:04:56.812Z,85.6
2018-02-27T05:05:58.413Z,85.7
2018-02-27T05:07:00.015Z,85.4
2018-02-27T05:08:01.614Z,86.2
2018-02-27T05:09:03.216Z,86.0
2018-02-27T05:10:04.815Z,86.0
2018-02-27T05:11:06.415Z,85.6
2018-02-27T05:12:08.024Z,85.9
2018-02-27T05:13:09.625Z,85.9
2018-02-27T05:14:11.232Z,85.9
2018-02-27T05:15:12.826Z,86.1
2018-02-27T05:16:14.429Z,85.9
2018-02-27T05:17:16.917Z,85.9
2018-02-27T05:18:18.517Z,85.8
2018-02-27T05:19:20.116Z,85.5
2018-02-27T05:20:21.725Z,85.5
2018-02-27T05:21:23.322Z,86.1
2018-02-27T05:22:24.925Z,86.0
2018-02-27T05:23:26.528Z,85.9
2018-02-27T05:24:28.131Z,86.0
2018-02-27T05:25:29.729Z,85.8
2018-02-27T05:26:31.333Z,85.9
2018-02-27T05:27:32.940Z,85.8
2018-02-27T05:28:34.539Z,85.9
2018-02-27T05:29:36.142Z,85.5
2018-02-27T05:30:37.759Z,86.2
2018-02-27T05:31:39.349Z,86.1
2018-02-27T05:32:40.948Z,86.1
2018-02-27T05:33:42.548Z,86.0
2018-02-27T05:34:44.155Z,86.0
2018-02-27T05:35:45.759Z,86.1
2018-02-27T05:36:47.356Z,86.1
2018-02-27T05:37:48.960Z,86.2
2018-02-27T05:38:50.556Z,86.2
2018-02-27T05:39:52.156Z,86.1
2018-02-27T05:40:53.755Z,85.9
2018-02-27T05:41:55.365Z,86.2
2018-02-27T05:42:56.973Z,85.6
2018-02-27T05:43:58.571Z,85.9
2018-02-27T05:45:00.169Z,85.6
2018-02-27T05:46:01.775Z,85.8
2018-02-27T05:47:04.323Z,86.1
2018-02-27T05:48:05.926Z,86.0
2018-02-27T05:49:07.527Z,86.0
2018-02-27T05:50:09.134Z,86.0
2018-02-27T05:51:10.731Z,86.2
2018-02-27T05:52:12.332Z,86.2
2018-02-27T05:53:13.934Z,85.9
2018-02-27T05:54:15.542Z,85.9
2018-02-27T05:55:17.144Z,85.8
2018-02-27T05:56:18.749Z,86.3
2018-02-27T05:57:20.352Z,85.6
2018-02-27T05:58:21.950Z,86.4
2018-02-27T05:59:23.555Z,86.5
2018-02-27T06:00:25.160Z,86.3
2018-02-27T06:01:26.763Z,86.6
2018-02-27T06:02:28.365Z,86.7
2018-02-27T06:03:29.977Z,86.5
2018-02-27T06:04:31.578Z,86.4
2018-02-27T06:05:33.175Z,86.6
2018-02-27T06:06:34.776Z,86.3
2018-02-27T06:07:36.384Z,86.5
2018-02-27T06:08:37.988Z,86.6
2018-02-27T06:09:39.587Z,86.6
2018-02-27T06:10:41.192Z,86.8
2018-02-27T06:11:42.795Z,86.6
2018-02-27T06:12:44.397Z,86.6
2018-02-27T06:13:45.998Z,86.4
2018-02-27T06:14:47.606Z,86.6
2018-02-27T06:15:49.259Z,86.3
2018-02-27T06:16:50.833Z,86.4
2018-02-27T06:17:52.419Z,86.3
2018-02-27T06:18:54.029Z,85.8
2018-02-27T06:19:55.634Z,85.4
2018-02-27T06:20:57.240Z,86.2
2018-02-27T06:21:58.882Z,86.6
2018-02-27T06:23:00.483Z,86.4
2018-02-27T06:24:02.561Z,86.7
2018-02-27T06:25:04.183Z,86.9
2018-02-27T06:26:06.359Z,87.2
2018-02-27T06:27:07.920Z,87.0
2018-02-27T06:28:09.540Z,86.5
2018-02-27T06:29:11.241Z,86.9
2018-02-27T06:30:12.856Z,86.7
2018-02-27T06:31:14.458Z,86.9
2018-02-27T06:32:16.065Z,86.6
2018-02-27T06:33:17.671Z,86.7
2018-02-27T06:34:19.276Z,86.7
2018-02-27T06:35:20.878Z,86.9
2018-02-27T06:36:22.505Z,87.0
2018-02-27T06:37:24.117Z,87.1
2018-02-27T06:38:25.725Z,87.4
2018-02-27T06:39:27.331Z,86.2
2018-02-27T06:40:28.942Z,87.0
2018-02-27T06:41:30.540Z,87.3
2018-02-27T06:42:32.143Z,87.3
2018-02-27T06:43:33.755Z,87.3
2018-02-27T06:44:35.355Z,87.2
2018-02-27T06:45:36.961Z,87.5
2018-02-27T06:46:38.572Z,88.3
2018-02-27T06:47:40.180Z,88.7
2018-02-27T06:48:41.787Z,88.0
2018-02-27T06:49:43.390Z,88.0
2018-02-27T06:50:44.998Z,87.9
2018-02-27T06:51:46.599Z,87.3
2018-02-27T06:52:48.227Z,87.4
2018-02-27T06:53:49.833Z,87.1
2018-02-27T06:54:51.440Z,87.2
2018-02-27T06:55:53.042Z,87.1
2018-02-27T06:56:54.654Z,87.1
2018-02-27T06:57:56.257Z,86.6
2018-02-27T06:58:57.866Z,87.3
2018-02-27T06:59:59.499Z,88.1
2018-02-27T07:01:01.086Z,88.0
2018-02-27T07:02:02.699Z,88.0
2018-02-27T07:03:04.298Z,87.9
2018-02-27T07:04:05.902Z,87.4
2018-02-27T07:05:07.509Z,87.6
2018-02-27T07:06:09.115Z,87.5
2018-02-27T07:07:11.685Z,87.3
2018-02-27T07:08:13.873Z,87.2
2018-02-27T07:09:15.480Z,87.3
2018-02-27T07:10:17.134Z,87.4
2018-02-27T07:11:18.695Z,87.3
2018-02-27T07:12:20.303Z,87.3
2018-02-27T07:13:21.909Z,87.1
2018-02-27T07:14:23.518Z,87.3
2018-02-27T07:15:25.127Z,87.4
2018-02-27T07:16:26.732Z,87.3
2018-02-27T07:17:28.345Z,87.3
2018-02-27T07:18:29.956Z,87.3
2018-02-27T07:19:31.618Z,87.2
2018-02-27T07:20:33.179Z,86.9
2018-02-27T07:21:34.790Z,87.0
2018-02-27T07:22:36.396Z,87.2
2018-02-27T07:23:38.009Z,87.5
2018-02-27T07:24:39.616Z,87.0
2018-02-27T07:25:41.220Z,86.9
2018-02-27T07:26:42.825Z,87.4
2018-02-27T07:27:45.263Z,87.3
2018-02-27T07:28:46.873Z,86.6
2018-02-27T07:29:48.706Z,87.1
2018-02-27T07:30:50.280Z,87.5
2018-02-27T07:31:51.888Z,88.0
2018-02-27T07:32:53.495Z,88.0
2018-02-27T07:33:55.102Z,87.7
2018-02-27T07:34:56.706Z,87.1
2018-02-27T07:35:58.329Z,87.2
2018-02-27T07:36:59.940Z,87.6
2018-02-27T07:38:01.552Z,87.4
2018-02-27T07:39:03.158Z,87.6
2018-02-27T07:40:04.763Z,87.1
2018-02-27T07:41:06.377Z,87.1
2018-02-27T07:42:07.978Z,87.0
2018-02-27T07:43:09.591Z,87.1
2018-02-27T07:44:11.197Z,86.7
2018-02-27T07:45:12.810Z,87.2
2018-02-27T07:46:14.413Z,87.1
2018-02-27T07:47:16.064Z,87.0
2018-02-27T07:48:17.627Z,87.1
2018-02-27T07:49:19.241Z,87.0
2018-02-27T07:50:20.850Z,87.0
2018-02-27T07:51:22.460Z,84.0
2018-02-27T07:52:24.072Z,87.1
2018-02-27T07:53:25.693Z,87.1
2018-02-27T07:54:27.299Z,86.8
2018-02-27T07:55:28.927Z,86.5
2018-02-27T07:56:30.540Z,85.9
2018-02-27T07:57:32.149Z,86.6
2018-02-27T07:58:33.764Z,86.2
2018-02-27T07:59:35.370Z,86.0
2018-02-27T08:00:36.981Z,85.7
2018-02-27T08:01:38.588Z,85.6
2018-02-27T08:02:40.203Z,85.4
2018-02-27T08:03:41.812Z,86.2
2018-02-27T08:04:43.430Z,85.3
2018-02-27T08:05:45.036Z,85.0
2018-02-27T08:06:46.650Z,85.3
2018-02-27T08:07:49.131Z,84.2
2018-02-27T08:08:49.820Z,84.3
2018-02-27T08:09:51.431Z,84.1
2018-02-27T08:10:53.044Z,84.1
2018-02-27T08:11:54.652Z,83.4
2018-02-27T08:12:56.272Z,82.4
2018-02-27T08:13:58.733Z,82.1
2018-02-27T08:15:00.339Z,82.5
2018-02-27T08:16:01.959Z,81.7
2018-02-27T08:17:03.566Z,81.7
2018-02-27T08:18:05.177Z,81.6
2018-02-27T08:19:06.788Z,80.7
2018-02-27T08:20:08.397Z,80.4
2018-02-27T08:21:10.031Z,79.7
2018-02-27T08:22:11.713Z,78.5
2018-02-27T08:23:13.320Z,76.8
2018-02-27T08:24:14.933Z,76.6
2018-02-27T08:25:16.579Z,75.9
2018-02-27T08:26:18.246Z,75.0
2018-02-27T08:27:19.994Z,74.3
2018-02-27T08:28:21.601Z,72.5
2018-02-27T08:29:23.217Z,72.5
2018-02-27T08:30:25.769Z,71.6
2018-02-27T08:31:28.091Z,71.3
2018-02-27T08:32:29.693Z,70.5
2018-02-27T08:33:31.310Z,70.6
2018-02-27T08:34:32.921Z,68.5
2018-02-27T08:35:34.592Z,67.7
2018-02-27T08:36:36.268Z,66.7
2018-02-27T08:37:37.924Z,65.4
2018-02-27T08:38:39.526Z,64.4
2018-02-27T08:39:41.155Z,63.6
2018-02-27T08:40:42.771Z,63.0
2018-02-27T08:41:44.385Z,62.1
2018-02-27T08:42:46.008Z,61.3
2018-02-27T08:43:47.598Z,60.8
2018-02-27T08:44:49.239Z,60.7
2018-02-27T08:45:50.846Z,60.6
2018-02-27T08:46:52.464Z,59.9
2018-02-27T08:47:54.072Z,60.9
2018-02-27T08:48:55.691Z,60.6
2018-02-27T08:49:57.303Z,60.2
2018-02-27T08:50:58.936Z,58.3
2018-02-27T08:52:00.533Z,57.3
2018-02-27T08:53:02.167Z,55.6
2018-02-27T08:54:03.778Z,54.9
2018-02-27T08:55:05.400Z,54.9
2018-02-27T08:56:07.061Z,53.9
2018-02-27T08:57:08.622Z,52.6
2018-02-27T08:58:10.240Z,52.1
2018-02-27T08:59:11.850Z,51.9
2018-02-27T09:00:13.623Z,51.3
2018-02-27T09:01:15.278Z,51.8
2018-02-27T09:02:16.854Z,51.2
2018-02-27T09:03:18.464Z,50.8
2018-02-27T09:04:20.085Z,50.3
2018-02-27T09:05:21.693Z,49.3
2018-02-27T09:06:23.308Z,48.8
2018-02-27T09:07:32.547Z,48.7
2018-02-27T09:08:33.683Z,48.7
2018-02-27T09:09:35.295Z,47.5
2018-02-27T09:10:36.917Z,46.8
2018-02-27T09:11:38.527Z,46.3
2018-02-27T09:12:40.147Z,46.2
2018-02-27T09:13:41.760Z,45.6
2018-02-27T09:14:43.451Z,45.7
2018-02-27T09:15:44.989Z,45.5
2018-02-27T09:16:46.611Z,44.8
2018-02-27T09:17:58.061Z,44.6
2018-02-27T09:19:05.801Z,44.4
2018-02-27T09:20:06.978Z,44.4
2018-02-27T09:21:08.599Z,44.8
2018-02-27T09:22:10.217Z,43.8
2018-02-27T09:23:11.834Z,44.1
2018-02-27T09:24:13.450Z,44.0
2018-02-27T09:25:15.072Z,42.8
2018-02-27T09:26:16.690Z,43.0
2018-02-27T09:27:18.304Z,42.9
2018-02-27T09:28:19.916Z,42.7
2018-02-27T09:29:21.536Z,42.3
2018-02-27T09:30:23.154Z,41.2
2018-02-27T09:31:24.769Z,41.1
2018-02-27T09:32:26.386Z,40.9
2018-02-27T09:33:28.043Z,41.0
2018-02-27T09:34:29.633Z,40.6
2018-02-27T09:35:31.247Z,41.2
2018-02-27T09:36:32.888Z,41.2
2018-02-27T09:37:34.583Z,40.3
2018-02-27T09:38:36.148Z,39.9
2018-02-27T09:39:37.762Z,38.9
2018-02-27T09:40:39.410Z,38.8
2018-02-27T09:41:41.018Z,38.7
2018-02-27T09:42:42.636Z,38.5
2018-02-27T09:43:44.250Z,37.6
2018-02-27T09:44:45.878Z,37.7
2018-02-27T09:45:47.490Z,38.3
2018-02-27T09:46:49.167Z,38.0
2018-02-27T09:47:50.795Z,37.5
2018-02-27T09:48:52.412Z,37.0
2018-02-27T09:49:54.041Z,37.1
2018-02-27T09:50:55.654Z,37.3
2018-02-27T09:51:57.276Z,37.6
2018-02-27T09:52:58.900Z,37.1
2018-02-27T09:54:00.519Z,36.2
2018-02-27T09:55:02.144Z,35.2
2018-02-27T09:56:03.760Z,34.4
2018-02-27T09:57:05.383Z,34.6
2018-02-27T09:58:07.000Z,33.2
2018-02-27T09:59:08.625Z,32.8
2018-02-27T10:00:10.241Z,33.5
2018-02-27T10:01:11.867Z,33.2
2018-02-27T10:02:13.486Z,32.2
2018-02-27T10:03:15.106Z,31.4
2018-02-27T10:04:16.726Z,30.7
2018-02-27T10:05:18.348Z,30.9
2018-02-27T10:06:19.964Z,31.1
2018-02-27T10:07:21.629Z,30.8
2018-02-27T10:08:23.258Z,31.1
2018-02-27T10:09:24.873Z,32.3
2018-02-27T10:10:26.498Z,31.8
2018-02-27T10:11:28.118Z,32.2
2018-02-27T10:12:29.741Z,31.3
2018-02-27T10:13:31.360Z,30.7
2018-02-27T10:14:32.988Z,29.8
2018-02-27T10:15:34.613Z,30.1
2018-02-27T10:16:36.390Z,30.7
2018-02-27T10:17:38.053Z,30.1
2018-02-27T10:18:39.699Z,29.7
2018-02-27T10:19:41.418Z,29.7
2018-02-27T10:20:43.096Z,28.3
2018-02-27T10:21:44.855Z,29.1
2018-02-27T10:22:46.535Z,29.0
2018-02-27T10:23:48.298Z,29.6
2018-02-27T10:24:50.050Z,31.3
2018-02-27T10:25:51.768Z,28.8
2018-02-27T10:26:53.521Z,27.8
2018-02-27T10:27:55.266Z,28.4
2018-02-27T10:28:56.973Z,29.6
2018-02-27T10:29:58.751Z,29.8
2018-02-27T10:31:00.550Z,28.6
2018-02-27T10:32:02.175Z,28.0
2018-02-27T10:33:03.801Z,28.2
2018-02-27T10:34:05.427Z,28.4
2018-02-27T10:35:07.053Z,28.5
2018-02-27T10:36:08.677Z,29.2
2018-02-27T10:37:10.348Z,27.4
2018-02-27T10:38:11.921Z,28.3
2018-02-27T10:39:13.548Z,28.5
2018-02-27T10:40:15.172Z,28.4
2018-02-27T10:41:16.790Z,27.9
2018-02-27T10:42:18.410Z,28.8
2018-02-27T10:43:20.036Z,28.2
2018-02-27T10:44:21.662Z,27.6
2018-02-27T10:45:23.305Z,27.7
2018-02-27T10:46:24.952Z,27.2
2018-02-27T10:47:26.529Z,28.0
2018-02-27T10:48:28.148Z,28.1
2018-02-27T10:49:29.775Z,28.0
2018-02-27T10:50:31.402Z,27.4
2018-02-27T10:51:33.023Z,27.5
2018-02-27T10:52:34.648Z,27.8
2018-02-27T10:53:36.276Z,28.7
2018-02-27T10:54:37.898Z,28.2
2018-02-27T10:55:39.515Z,28.1
2018-02-27T10:56:41.144Z,28.0
2018-02-27T10:57:42.761Z,28.0
2018-02-27T10:58:44.390Z,27.2
2018-02-27T10:59:46.013Z,26.8
2018-02-27T11:00:47.636Z,26.5
2018-02-27T11:01:49.258Z,27.3
2018-02-27T11:02:50.878Z,27.7
2018-02-27T11:03:52.501Z,28.0
2018-02-27T11:04:54.129Z,27.9
2018-02-27T11:05:55.748Z,27.9
2018-02-27T11:06:57.372Z,27.7
2018-02-27T11:07:58.997Z,27.2
2018-02-27T11:09:00.620Z,26.3
2018-02-27T11:10:02.237Z,27.0
2018-02-27T11:11:03.859Z,27.4
2018-02-27T11:12:05.486Z,27.2
2018-02-27T11:13:07.106Z,26.8
2018-02-27T11:14:08.734Z,26.3
2018-02-27T11:15:10.356Z,26.5
2018-02-27T11:16:11.975Z,26.7
2018-02-27T11:17:13.597Z,27.1
2018-02-27T11:18:15.220Z,27.7
2018-02-27T11:19:16.845Z,28.8
2018-02-27T11:20:18.466Z,29.4
2018-02-27T11:21:20.094Z,30.2
2018-02-27T11:22:21.714Z,31.1
2018-02-27T11:23:23.336Z,30.7
2018-02-27T11:24:24.952Z,29.9
2018-02-27T11:25:26.572Z,29.6
2018-02-27T11:26:28.201Z,29.2
2018-02-27T11:27:29.812Z,29.6
2018-02-27T11:28:31.431Z,29.7
2018-02-27T11:29:33.054Z,30.1
2018-02-27T11:30:34.733Z,30.3
2018-02-27T11:31:36.381Z,30.6
2018-02-27T11:32:37.998Z,31.2
2018-02-27T11:33:39.623Z,31.0
2018-02-27T11:34:41.237Z,31.0
2018-02-27T11:35:42.866Z,31.1
2018-02-27T11:36:44.479Z,30.9
2018-02-27T11:37:46.095Z,30.9
2018-02-27T11:38:47.714Z,31.8
2018-02-27T11:39:49.330Z,32.6
2018-02-27T11:40:50.951Z,32.2
2018-02-27T11:41:52.572Z,31.6
2018-02-27T11:42:54.192Z,31.7
2018-02-27T11:43:55.814Z,31.2
2018-02-27T11:44:57.429Z,30.9
2018-02-27T11:45:59.049Z,31.6
2018-02-27T11:47:00.676Z,31.8
2018-02-27T11:48:02.287Z,30.9
2018-02-27T11:49:03.911Z,31.0
2018-02-27T11:50:05.527Z,31.2
2018-02-27T11:51:07.146Z,32.4
2018-02-27T11:52:08.761Z,31.2
2018-02-27T11:53:10.381Z,30.9
2018-02-27T11:54:12.000Z,31.2
2018-02-27T11:55:13.617Z,32.2
2018-02-27T11:56:15.232Z,32.2
2018-02-27T11:57:16.854Z,32.9
2018-02-27T11:58:18.465Z,33.5
2018-02-27T11:59:20.084Z,34.5
2018-02-27T12:00:21.701Z,35.0
2018-02-27T12:01:23.319Z,34.9
2018-02-27T12:02:24.935Z,34.6
2018-02-27T12:03:26.555Z,34.2
2018-02-27T12:04:28.174Z,34.0
2018-02-27T12:05:29.817Z,34.0
2018-02-27T12:06:31.399Z,34.6
2018-02-27T12:07:33.018Z,34.9
2018-02-27T12:08:34.636Z,35.4
2018-02-27T12:09:36.250Z,35.4
2018-02-27T12:10:37.866Z,35.6
2018-02-27T12:11:39.486Z,35.4
2018-02-27T12:12:41.102Z,35.8
2018-02-27T12:13:42.742Z,35.9
2018-02-27T12:14:45.222Z,37.5
2018-02-27T12:15:45.907Z,37.4
2018-02-27T12:16:47.522Z,37.6
2018-02-27T12:17:49.139Z,37.2
2018-02-27T12:18:50.754Z,36.6
2018-02-27T12:19:52.372Z,36.5
2018-02-27T12:20:53.988Z,36.6
2018-02-27T12:21:55.602Z,36.4
2018-02-27T12:22:57.218Z,37.3
2018-02-27T12:23:58.836Z,36.8
2018-02-27T12:25:00.454Z,37.2
2018-02-27T12:26:02.071Z,36.9
2018-02-27T12:27:03.681Z,36.9
2018-02-27T12:28:05.294Z,37.5
2018-02-27T12:29:06.908Z,37.5
2018-02-27T12:30:08.568Z,37.8
2018-02-27T12:31:10.139Z,38.5
2018-02-27T12:32:11.756Z,38.4
2018-02-27T12:33:13.373Z,38.7
2018-02-27T12:34:14.989Z,38.5
2018-02-27T12:35:16.604Z,38.6
2018-02-27T12:36:18.216Z,38.8
2018-02-27T12:37:19.838Z,38.6
2018-02-27T12:38:21.451Z,38.9
2018-02-27T12:39:23.070Z,39.3
2018-02-27T12:40:24.741Z,39.3
2018-02-27T12:41:26.375Z,39.3
2018-02-27T12:42:27.985Z,39.3
2018-02-27T12:43:29.613Z,39.0
2018-02-27T12:44:31.232Z,39.3
2018-02-27T12:45:32.846Z,38.7
2018-02-27T12:46:34.464Z,38.6
2018-02-27T12:47:36.080Z,38.9
2018-02-27T12:48:37.694Z,38.9
2018-02-27T12:49:39.311Z,38.8
2018-02-27T12:50:40.926Z,38.8
2018-02-27T12:51:42.551Z,38.6
2018-02-27T12:52:44.169Z,38.9
2018-02-27T12:53:45.781Z,39.1
2018-02-27T12:54:47.402Z,39.7
2018-02-27T12:55:49.011Z,40.8
2018-02-27T12:56:50.628Z,41.0
2018-02-27T12:57:52.250Z,41.2
2018-02-27T12:58:53.870Z,41.6
2018-02-27T12:59:55.478Z,42.1
2018-02-27T13:00:57.098Z,42.0
2018-02-27T13:01:58.712Z,42.3
2018-02-27T13:03:00.318Z,42.3
2018-02-27T13:04:01.929Z,42.8
2018-02-27T13:05:03.538Z,42.8
2018-02-27T13:06:05.153Z,43.3
2018-02-27T13:07:06.762Z,43.8
2018-02-27T13:08:08.375Z,44.2
2018-02-27T13:09:09.993Z,43.4
2018-02-27T13:10:11.607Z,44.1
2018-02-27T13:11:13.216Z,44.1
2018-02-27T13:12:14.827Z,44.6
2018-02-27T13:13:16.445Z,44.6
2018-02-27T13:14:18.056Z,45.7
2018-02-27T13:15:19.673Z,45.6
2018-02-27T13:16:21.281Z,45.9
2018-02-27T13:17:22.898Z,45.2
2018-02-27T13:18:24.512Z,45.7
2018-02-27T13:19:26.124Z,45.9
2018-02-27T13:20:27.734Z,45.8
2018-02-27T13:21:29.345Z,45.8
2018-02-27T13:22:30.962Z,46.3
2018-02-27T13:23:32.572Z,46.4
2018-02-27T13:24:34.185Z,46.6
2018-02-27T13:25:35.802Z,46.7
2018-02-27T13:26:37.402Z,46.7
2018-02-27T13:27:39.016Z,46.9
2018-02-27T13:28:40.627Z,46.8
2018-02-27T13:29:42.240Z,47.4
2018-02-27T13:30:43.857Z,47.1
2018-02-27T13:31:45.464Z,46.8
2018-02-27T13:32:47.073Z,47.2
2018-02-27T13:33:48.686Z,47.7
2018-02-27T13:34:50.297Z,47.7
2018-02-27T13:35:51.905Z,47.7
2018-02-27T13:36:53.517Z,48.4
2018-02-27T13:37:55.132Z,48.9
2018-02-27T13:38:56.744Z,48.6
2018-02-27T13:39:58.349Z,48.2
2018-02-27T13:40:59.964Z,48.5